Time;durP1;ratioP1;P1;durP2;ratioP2;P2;SDS_P1;SDS_P2;PMS_P1;PMS_P2;Temp;Humidity;BMP_temperature;BMP_pressure;BME280_temperature;BME280_humidity;BME280_pressure;Samples;Min_cycle;Max_cycle;Signal;HPM_P1;HPM_P2
2021/11/23 00:01:33;;;;;;;39.90;18.60;;;;;;;3.20;87.34;97510.41;108009;1272;70609;-67
2021/11/23 00:04:04;;;;;;;28.40;13.00;;;;;;;3.20;87.34;97509.38;108001;1272;67198;-67
2021/11/23 00:06:35;;;;;;;21.80;8.90;;;;;;;3.21;87.42;97513.11;107992;1272;68679;-67
2021/11/23 00:09:05;;;;;;;27.80;13.80;;;;;;;3.23;87.51;97514.75;107966;1275;59733;-67
2021/11/23 00:11:34;;;;;;;;;;;;;;;3.25;87.50;97516.72;108010;1275;59786;-67
2021/11/23 00:14:04;;;;;;;28.70;15.10;;;;;;;3.26;87.45;97514.64;108017;1272;71005;-67
2021/11/23 00:16:35;;;;;;;23.00;10.00;;;;;;;3.28;87.38;97510.74;107917;1275;67195;-67
2021/11/23 00:19:04;;;;;;;22.70;11.60;;;;;;;3.30;87.19;97508.92;108067;1272;68638;-67
2021/11/23 00:21:33;;;;;;;19.50;9.40;;;;;;;3.31;87.04;97513.19;108089;1275;59767;-66
2021/11/23 00:24:04;;;;;;;42.10;20.80;;;;;;;3.32;86.77;97514.19;108113;1272;59639;-67
2021/11/23 00:26:33;;;;;;;28.30;14.00;;;;;;;3.31;87.02;97519.06;108094;1272;71640;-68
2021/11/23 00:29:03;;;;;;;38.90;16.80;;;;;;;3.30;87.02;97522.88;108034;1272;67820;-67
2021/11/23 00:31:32;;;;;;;23.60;11.20;;;;;;;3.31;87.00;97517.16;108075;1272;69654;-67
2021/11/23 00:34:02;;;;;;;30.00;14.40;;;;;;;3.32;86.97;97525.71;107996;1275;59793;-68
2021/11/23 00:36:32;;;;;;;49.60;21.30;;;;;;;3.34;86.86;97522.05;107955;1275;60236;-68
2021/11/23 00:39:04;;;;;;;34.00;14.70;;;;;;;3.29;86.91;97527.56;108006;1272;71565;-67
2021/11/23 00:41:33;;;;;;;28.40;14.00;;;;;;;3.27;87.41;97531.61;108159;1272;67674;-67
2021/11/23 00:44:03;;;;;;;26.60;12.30;;;;;;;3.29;87.59;97533.45;107962;1272;68452;-67
2021/11/23 00:46:34;;;;;;;28.30;12.30;;;;;;;3.30;87.55;97530.98;108098;1272;59742;-68
2021/11/23 00:49:03;;;;;;;40.90;18.40;;;;;;;3.31;87.42;97536.77;108098;1272;59758;-68
2021/11/23 00:51:33;;;;;;;37.00;18.70;;;;;;;3.31;87.40;97534.52;108051;1274;72094;-68
2021/11/23 00:54:03;;;;;;;39.50;18.40;;;;;;;3.31;87.18;97532.33;108100;1272;68136;-67
2021/11/23 00:56:33;;;;;;;;;;;;;;;3.29;86.99;97536.70;108050;1275;69279;-67
2021/11/23 00:59:03;;;;;;;34.90;16.90;;;;;;;3.26;87.02;97535.95;108068;1272;59713;-68
2021/11/23 01:01:34;;;;;;;39.30;17.90;;;;;;;3.26;86.91;97536.86;108047;1272;59706;-68
2021/11/23 01:04:04;;;;;;;30.20;15.80;;;;;;;3.24;86.97;97538.80;107986;1275;71548;-68
2021/11/23 01:06:33;;;;;;;33.30;16.80;;;;;;;3.22;86.98;97537.67;108058;1272;68710;-67
2021/11/23 01:09:04;;;;;;;25.00;12.80;;;;;;;3.24;87.07;97536.95;108058;1270;69652;-67
2021/11/23 01:11:35;;;;;;;25.80;14.10;;;;;;;3.26;87.12;97536.48;107985;1275;59726;-67
2021/11/23 01:14:08;;;;;;;33.70;15.50;;;;;;;3.30;87.14;97539.79;108070;1272;59783;-67
2021/11/23 01:16:38;;;;;;;35.70;17.20;;;;;;;3.31;87.04;97540.39;107923;1273;70575;-67
2021/11/23 01:19:09;;;;;;;37.40;18.90;;;;;;;3.32;86.90;97537.26;107882;1272;68476;-66
2021/11/23 01:21:39;;;;;;;34.80;16.30;;;;;;;3.33;86.91;97538.80;107972;1272;68150;-68
2021/11/23 01:24:10;;;;;;;29.90;16.50;;;;;;;3.32;86.85;97540.70;107986;1275;59713;-67
2021/11/23 01:26:41;;;;;;;29.30;14.20;;;;;;;3.33;87.01;97542.77;108018;1272;59715;-68
2021/11/23 01:29:11;;;;;;;20.80;11.50;;;;;;;3.35;87.03;97545.45;108036;1275;71381;-67
2021/11/23 01:31:42;;;;;;;23.70;12.00;;;;;;;3.37;87.17;97547.59;108010;1272;68211;-68
2021/11/23 01:34:13;;;;;;;23.90;13.10;;;;;;;3.39;87.12;97544.56;108117;1272;68667;-67
2021/11/23 01:36:42;;;;;;;30.00;15.30;;;;;;;3.40;86.99;97544.02;107983;1272;59769;-68
2021/11/23 01:39:13;;;;;;;36.00;17.00;;;;;;;3.40;86.84;97543.48;108126;1274;59726;-67
2021/11/23 01:41:43;;;;;;;33.70;15.60;;;;;;;3.39;86.77;97546.99;108058;1274;71557;-67
2021/11/23 01:44:14;;;;;;;28.50;15.50;;;;;;;3.38;86.78;97548.23;108114;1274;68714;-68
2021/11/23 01:46:44;;;;;;;28.00;13.80;;;;;;;3.38;86.77;97551.15;108059;1272;67881;-67
2021/11/23 01:49:14;;;;;;;;;;;;;;;3.39;86.87;97548.86;107948;1273;59752;-68
2021/11/23 01:51:44;;;;;;;25.90;13.90;;;;;;;3.40;86.88;97552.59;107880;1275;60136;-67
2021/11/23 01:54:14;;;;;;;21.50;8.60;;;;;;;3.42;86.75;97551.84;107971;1272;70811;-67
2021/11/23 01:56:44;;;;;;;18.70;9.50;;;;;;;3.43;86.64;97543.70;107875;1276;68615;-67
2021/11/23 01:59:15;;;;;;;23.50;13.00;;;;;;;3.44;86.59;97538.14;108072;1272;68633;-68
2021/11/23 02:01:47;;;;;;;22.40;10.00;;;;;;;3.44;86.63;97540.76;108002;1272;59799;-68
2021/11/23 02:04:17;;;;;;;;;;;;;;;3.43;86.50;97537.48;107878;1272;59697;-68
2021/11/23 02:06:47;;;;;;;;;;;;;;;3.42;86.57;97537.02;108086;1272;71556;-67
2021/11/23 02:09:17;;;;;;;31.00;16.80;;;;;;;3.41;86.63;97538.63;108003;1275;68443;-68
2021/11/23 02:11:50;;;;;;;35.00;17.40;;;;;;;3.39;86.79;97542.00;108059;1272;68460;-68
2021/11/23 02:14:20;;;;;;;29.70;16.20;;;;;;;3.39;86.90;97545.80;108043;1272;59738;-68
2021/11/23 02:16:50;;;;;;;30.60;16.10;;;;;;;3.39;86.92;97550.40;108093;1270;59691;-68
2021/11/23 02:19:20;;;;;;;25.10;13.30;;;;;;;3.40;86.94;97551.05;108070;1272;70587;-67
2021/11/23 02:21:50;;;;;;;28.50;14.30;;;;;;;3.42;86.96;97555.64;108128;1272;68635;-67
2021/11/23 02:24:21;;;;;;;31.80;15.30;;;;;;;3.41;86.70;97551.72;108038;1272;69508;-67
2021/11/23 02:26:51;;;;;;;31.00;15.30;;;;;;;3.40;86.66;97551.42;108051;1272;59777;-67
2021/11/23 02:29:20;;;;;;;42.90;18.70;;;;;;;3.38;86.90;97552.35;108019;1273;59729;-68
2021/11/23 02:31:50;;;;;;;32.50;16.80;;;;;;;3.38;87.16;97555.33;107839;1272;70705;-67
2021/11/23 02:34:19;;;;;;;26.50;15.90;;;;;;;3.38;87.02;97554.44;107948;1274;68706;-67
2021/11/23 02:36:50;;;;;;;20.70;9.70;;;;;;;3.39;87.09;97557.98;107938;1274;68594;-68
2021/11/23 02:39:22;;;;;;;22.30;11.20;;;;;;;3.41;87.12;97560.33;108046;1275;59780;-68
2021/11/23 02:41:54;;;;;;;26.80;14.20;;;;;;;3.42;87.04;97560.98;108097;1272;59742;-66
2021/11/23 02:44:24;;;;;;;28.10;15.00;;;;;;;3.42;86.87;97565.11;108096;1272;71580;-67
2021/11/23 02:46:54;;;;;;;25.80;11.40;;;;;;;3.41;86.80;97567.02;107926;1274;68639;-66
2021/11/23 02:49:23;;;;;;;30.60;14.10;;;;;;;3.42;86.92;97568.04;107921;1274;68790;-66
2021/11/23 02:51:52;;;;;;;25.70;13.90;;;;;;;3.42;86.87;97566.49;107992;1275;59784;-66
2021/11/23 02:54:23;;;;;;;29.70;15.00;;;;;;;3.43;86.82;97568.53;107973;1274;59698;-69
2021/11/23 02:56:52;;;;;;;36.50;17.30;;;;;;;3.42;86.77;97568.91;107937;1274;70418;-67
2021/11/23 02:59:22;;;;;;;38.10;17.80;;;;;;;3.42;86.71;97569.25;108112;1272;67917;-69
2021/11/23 03:01:53;;;;;;;31.90;14.60;;;;;;;3.41;86.62;97576.02;107999;1275;69460;-69
2021/11/23 03:04:23;;;;;;;34.70;16.00;;;;;;;3.39;86.75;97581.25;107913;1272;59773;-69
2021/11/23 03:06:53;;;;;;;23.80;12.60;;;;;;;3.40;86.69;97582.27;108070;1272;59698;-67
2021/11/23 03:09:23;;;;;;;34.80;16.10;;;;;;;3.41;86.78;97583.77;108048;1272;71524;-69
2021/11/23 03:11:53;;;;;;;38.20;17.40;;;;;;;3.41;86.72;97588.22;108116;1272;68605;-66
2021/11/23 03:14:24;;;;;;;30.20;15.70;;;;;;;3.42;86.78;97587.16;107906;1272;69534;-66
2021/11/23 03:16:53;;;;;;;;;;;;;;;3.42;86.71;97588.73;108091;1272;59757;-67
2021/11/23 03:19:23;;;;;;;17.80;10.50;;;;;;;3.43;86.64;97584.91;108031;1274;59720;-66
2021/11/23 03:21:54;;;;;;;25.20;11.40;;;;;;;3.45;86.60;97582.92;108025;1273;71589;-67
2021/11/23 03:24:26;;;;;;;33.50;16.30;;;;;;;3.44;86.72;97587.42;108102;1272;68627;-66
2021/11/23 03:26:57;;;;;;;45.30;19.20;;;;;;;3.44;86.71;97593.77;108015;1274;69440;-67
2021/11/23 03:29:29;;;;;;;43.80;18.30;;;;;;;3.40;86.93;97587.94;107962;1275;59718;-68
2021/11/23 03:32:00;;;;;;;30.20;15.10;;;;;;;3.38;86.91;97592.52;108138;1272;59718;-67
2021/11/23 03:34:39;;;;;;;23.60;11.60;;;;;;;3.39;87.14;97594.70;107979;1273;71600;-68
2021/11/23 03:37:14;;;;;;;23.00;10.30;;;;;;;3.40;87.22;97592.58;108091;1272;68471;-67
2021/11/23 03:39:44;;;;;;;22.20;11.80;;;;;;;3.42;87.19;97595.60;108095;1272;69442;-68
2021/11/23 03:42:14;;;;;;;34.20;17.20;;;;;;;3.43;87.07;97596.79;108000;1272;59656;-67
2021/11/23 03:44:47;;;;;;;33.20;14.90;;;;;;;3.43;86.76;97594.55;107998;1272;59661;-67
2021/11/23 03:47:19;;;;;;;39.30;17.60;;;;;;;3.42;86.81;97594.92;107990;1275;71571;-67
2021/11/23 03:49:49;;;;;;;39.80;17.90;;;;;;;3.39;86.88;97591.94;108095;1272;68650;-68
2021/11/23 03:52:18;;;;;;;42.00;18.40;;;;;;;3.37;86.89;97591.48;108097;1272;67478;-67
2021/11/23 03:54:48;;;;;;;37.00;17.60;;;;;;;3.35;86.97;97596.05;108056;1272;59776;-67
2021/11/23 03:57:18;;;;;;;;;;;;;;;3.32;87.00;97597.54;108068;1272;59773;-67
2021/11/23 03:59:48;;;;;;;18.20;8.80;;;;;;;3.31;87.28;97600.34;108028;1275;71616;-68
2021/11/23 04:02:22;;;;;;;23.00;10.90;;;;;;;3.34;87.35;97605.25;108025;1274;67831;-67
2021/11/23 04:04:53;;;;;;;29.40;12.60;;;;;;;3.37;87.45;97606.33;108080;1269;67672;-67
2021/11/23 04:07:23;;;;;;;30.90;14.00;;;;;;;3.39;87.52;97607.29;108059;1275;59777;-68
2021/11/23 04:09:52;;;;;;;27.50;12.80;;;;;;;3.40;87.39;97611.20;108022;1270;59777;-67
2021/11/23 04:12:21;;;;;;;28.00;12.60;;;;;;;3.41;87.44;97615.11;108106;1272;71631;-68
2021/11/23 04:14:50;;;;;;;36.60;16.40;;;;;;;3.43;87.41;97616.60;108065;1272;68625;-67
2021/11/23 04:17:20;;;;;;;29.30;13.50;;;;;;;3.42;87.11;97612.83;107876;1274;68780;-68
2021/11/23 04:19:49;;;;;;;28.00;13.70;;;;;;;3.42;87.01;97612.48;108046;1272;59781;-68
2021/11/23 04:22:19;;;;;;;42.90;19.40;;;;;;;3.41;87.03;97612.52;108148;1272;59709;-68
2021/11/23 04:24:49;;;;;;;26.20;11.80;;;;;;;3.39;87.16;97611.23;108088;1272;70915;-68
2021/11/23 04:27:18;;;;;;;28.80;12.50;;;;;;;3.37;87.46;97611.82;107916;1274;68555;-67
2021/11/23 04:29:47;;;;;;;28.80;13.40;;;;;;;3.38;87.29;97613.53;107941;1274;69758;-68
2021/11/23 04:32:17;;;;;;;34.10;14.50;;;;;;;3.39;87.37;97615.55;108110;1272;59672;-68
2021/11/23 04:34:47;;;;;;;23.10;10.60;;;;;;;3.40;87.37;97616.20;108079;1272;59773;-67
2021/11/23 04:37:17;;;;;;;34.10;12.60;;;;;;;3.42;87.48;97621.46;108070;1272;70805;-67
2021/11/23 04:39:49;;;;;;;34.60;15.10;;;;;;;3.43;87.47;97622.11;107933;1272;68523;-68
2021/11/23 04:42:18;;;;;;;43.50;18.20;;;;;;;3.43;87.30;97622.47;107710;1274;70122;-68
2021/11/23 04:44:49;;;;;;;42.90;20.40;;;;;;;3.42;87.14;97619.90;108192;1272;59744;-68
2021/11/23 04:47:18;;;;;;;42.00;18.80;;;;;;;3.41;87.12;97627.18;108093;1272;59713;-67
2021/11/23 04:49:47;;;;;;;47.40;19.30;;;;;;;3.41;87.28;97630.80;107953;1272;71655;-68
2021/11/23 04:52:16;;;;;;;58.40;20.70;;;;;;;3.34;87.40;97633.48;108078;1272;67831;-67
2021/11/23 04:54:45;;;;;;;43.50;17.70;;;;;;;3.31;87.57;97637.73;108016;1274;68665;-68
2021/11/23 04:57:15;;;;;;;53.60;20.50;;;;;;;3.30;87.66;97637.27;108137;1272;59750;-68
2021/11/23 04:59:45;;;;;;;46.70;17.90;;;;;;;3.30;87.67;97639.18;108064;1272;59693;-68
2021/11/23 05:02:14;;;;;;;46.90;19.10;;;;;;;3.28;87.82;97640.09;107915;1272;71617;-68
2021/11/23 05:04:43;;;;;;;56.30;20.90;;;;;;;3.27;87.81;97638.06;107915;1275;68590;-68
2021/11/23 05:07:12;;;;;;;57.70;20.70;;;;;;;3.27;87.93;97641.52;108093;1272;70019;-68
2021/11/23 05:09:41;;;;;;;55.80;23.20;;;;;;;3.26;88.04;97643.79;108011;1272;59774;-68
2021/11/23 05:12:11;;;;;;;61.80;23.00;;;;;;;3.27;88.28;97645.11;108101;1272;59784;-67
2021/11/23 05:14:40;;;;;;;54.70;21.20;;;;;;;3.27;88.34;97651.15;107958;1273;72142;-67
2021/11/23 05:17:10;;;;;;;54.60;21.20;;;;;;;3.26;88.48;97652.09;107985;1271;68152;-67
2021/11/23 05:19:39;;;;;;;58.40;21.70;;;;;;;3.25;88.45;97652.48;108034;1272;69491;-67
2021/11/23 05:22:08;;;;;;;46.90;19.40;;;;;;;3.24;88.55;97652.48;108005;1275;59779;-67
2021/11/23 05:24:38;;;;;;;47.30;18.20;;;;;;;3.25;88.58;97653.15;107997;1274;59713;-67
2021/11/23 05:27:07;;;;;;;50.70;19.00;;;;;;;3.27;88.48;97652.70;108017;1275;69613;-66
2021/11/23 05:29:36;;;;;;;50.90;21.60;;;;;;;3.29;88.67;97650.25;108050;1271;68405;-67
2021/11/23 05:32:06;;;;;;;60.90;22.10;;;;;;;3.31;88.56;97653.77;108096;1271;69512;-67
2021/11/23 05:34:36;;;;;;;54.90;21.00;;;;;;;3.31;88.64;97655.46;107952;1275;59793;-66
2021/11/23 05:37:05;;;;;;;60.50;22.30;;;;;;;3.28;88.78;97654.73;108035;1272;59729;-67
2021/11/23 05:39:35;;;;;;;57.10;21.70;;;;;;;3.29;88.80;97655.73;107929;1274;71621;-66
2021/11/23 05:42:04;;;;;;;55.30;20.70;;;;;;;3.29;88.83;97663.49;108002;1272;68635;-67
2021/11/23 05:44:34;;;;;;;57.00;20.90;;;;;;;3.30;88.80;97664.48;108044;1272;70132;-66
2021/11/23 05:47:06;;;;;;;57.70;21.80;;;;;;;3.31;88.75;97667.52;108030;1272;60145;-66
2021/11/23 05:49:46;;;;;;;52.30;20.70;;;;;;;3.32;88.76;97671.10;108096;1272;59761;-66
2021/11/23 05:52:14;;;;;;;63.60;22.20;;;;;;;3.33;88.78;97676.44;108019;1272;71942;-66
2021/11/23 05:54:45;;;;;;;57.40;21.40;;;;;;;3.35;88.90;97681.55;108041;1272;69236;-67
2021/11/23 05:57:14;;;;;;;41.10;15.00;;;;;;;3.35;88.94;97685.65;107966;1272;70527;-67
2021/11/23 05:59:43;;;;;;;37.80;15.10;;;;;;;3.38;89.08;97691.39;107815;1275;59815;-67
2021/11/23 06:02:12;;;;;;;32.30;15.30;;;;;;;3.42;89.12;97690.73;108032;1272;59810;-66
2021/11/23 06:04:42;;;;;;;32.30;13.70;;;;;;;3.45;88.92;97690.93;108029;1272;72233;-67
2021/11/23 06:07:11;;;;;;;29.10;12.60;;;;;;;3.49;89.03;97694.77;108014;1271;68646;-66
2021/11/23 06:09:40;;;;;;;35.70;14.40;;;;;;;3.52;89.00;97700.64;108031;1272;67659;-67
2021/11/23 06:12:09;;;;;;;34.20;14.40;;;;;;;3.56;89.07;97702.56;107944;1272;59761;-67
2021/11/23 06:14:39;;;;;;;33.60;13.50;;;;;;;3.58;89.01;97707.98;107950;1274;59773;-67
2021/11/23 06:17:10;;;;;;;23.40;9.90;;;;;;;3.62;88.77;97714.92;107526;1272;585422;-66
2021/11/23 06:19:40;;;;;;;34.30;14.90;;;;;;;3.64;88.60;97718.96;107957;1274;68613;-66
2021/11/23 06:22:09;;;;;;;34.00;15.20;;;;;;;3.67;88.42;97722.15;107944;1275;69492;-66
2021/11/23 06:24:38;;;;;;;52.30;21.00;;;;;;;3.68;88.22;97722.59;107924;1270;59731;-66
2021/11/23 06:27:07;;;;;;;31.00;14.70;;;;;;;3.67;88.03;97722.64;108046;1272;59763;-69
2021/11/23 06:29:37;;;;;;;52.70;20.80;;;;;;;3.67;87.94;97726.77;108087;1272;71627;-66
2021/11/23 06:32:07;;;;;;;40.40;15.80;;;;;;;3.66;87.99;97740.80;108032;1272;67652;-66
2021/11/23 06:34:37;;;;;;;27.60;11.60;;;;;;;3.67;88.16;97744.51;107969;1272;68719;-66
2021/11/23 06:37:06;;;;;;;35.60;16.10;;;;;;;3.70;88.25;97744.40;108021;1272;59830;-66
2021/11/23 06:39:35;;;;;;;29.10;11.40;;;;;;;3.72;88.22;97748.96;108137;1272;59662;-66
2021/11/23 06:42:04;;;;;;;26.70;11.70;;;;;;;3.75;88.34;97747.65;107939;1273;70624;-66
2021/11/23 06:44:33;;;;;;;30.40;11.70;;;;;;;3.78;88.33;97747.55;108057;1274;67670;-67
2021/11/23 06:47:03;;;;;;;41.00;15.20;;;;;;;3.81;88.32;97747.95;108045;1272;68694;-66
2021/11/23 06:49:32;;;;;;;45.90;18.30;;;;;;;3.83;88.19;97749.41;108059;1272;59751;-66
2021/11/23 06:52:00;;;;;;;42.90;17.80;;;;;;;3.85;87.96;97751.39;107990;1272;59735;-68
2021/11/23 06:54:30;;;;;;;42.70;17.80;;;;;;;3.89;87.95;97750.55;107977;1272;71298;-66
2021/11/23 06:56:59;;;;;;;33.30;13.50;;;;;;;3.93;87.89;97753.81;107997;1271;68609;-66
2021/11/23 06:59:28;;;;;;;41.80;19.10;;;;;;;3.98;87.72;97758.79;107953;1272;69510;-66
2021/11/23 07:01:58;;;;;;;49.40;18.40;;;;;;;4.00;87.48;97762.14;107910;1272;59725;-66
2021/11/23 07:04:27;;;;;;;41.50;16.70;;;;;;;4.02;87.42;97762.94;107994;1272;59742;-66
2021/11/23 07:06:57;;;;;;;56.10;21.60;;;;;;;4.05;87.27;97761.79;108050;1272;71925;-66
2021/11/23 07:09:26;;;;;;;47.40;18.00;;;;;;;4.06;87.10;97764.48;107958;1273;68738;-65
2021/11/23 07:11:55;;;;;;;42.40;17.80;;;;;;;4.06;86.93;97766.22;107965;1271;69528;-66
2021/11/23 07:14:24;;;;;;;59.40;23.00;;;;;;;4.06;86.82;97769.48;108053;1273;59712;-66
2021/11/23 07:16:53;;;;;;;55.70;21.00;;;;;;;4.03;86.82;97769.95;107977;1272;59782;-65
2021/11/23 07:19:23;;;;;;;33.00;13.00;;;;;;;4.03;86.88;97771.54;107859;1274;70842;-66
2021/11/23 07:21:52;;;;;;;32.20;13.30;;;;;;;4.06;87.12;97779.14;108114;1272;69482;-66
2021/11/23 07:24:22;;;;;;;43.40;18.00;;;;;;;4.11;87.14;97785.19;107992;1273;69073;-66
2021/11/23 07:26:51;;;;;;;24.80;9.00;;;;;;;4.14;87.03;97789.91;107963;1275;59812;-68
2021/11/23 07:29:20;;;;;;;31.30;13.30;;;;;;;4.18;86.96;97793.02;107951;1275;59799;-66
2021/11/23 07:31:49;;;;;;;31.60;13.50;;;;;;;4.19;86.78;97796.06;108035;1272;71512;-66
2021/11/23 07:34:18;;;;;;;35.00;16.10;;;;;;;4.21;86.83;97800.46;107976;1272;68009;-65
2021/11/23 07:36:47;;;;;;;40.60;17.90;;;;;;;4.24;86.86;97798.44;107945;1272;67745;-66
2021/11/23 07:39:16;;;;;;;40.40;17.70;;;;;;;4.27;86.85;97795.38;108018;1272;59718;-66
2021/11/23 07:41:45;;;;;;;48.70;20.70;;;;;;;4.32;86.94;97797.95;107864;1272;59729;-67
2021/11/23 07:44:16;;;;;;;37.00;17.60;;;;;;;4.37;86.75;97804.63;108073;1272;70289;-66
2021/11/23 07:46:45;;;;;;;40.80;17.10;;;;;;;4.40;86.62;97807.10;107936;1268;67103;-65
2021/11/23 07:49:15;;;;;;;;;;;;;;;4.40;86.55;97809.16;107934;1274;68058;-66
2021/11/23 07:51:44;;;;;;;38.00;15.50;;;;;;;4.40;86.67;97814.87;108038;1272;59706;-66
2021/11/23 07:54:14;;;;;;;29.30;11.00;;;;;;;4.41;86.59;97819.13;107991;1275;59800;-66
2021/11/23 07:56:43;;;;;;;28.50;12.10;;;;;;;4.44;86.50;97822.98;108070;1275;71636;-66
2021/11/23 07:59:13;;;;;;;31.80;15.60;;;;;;;4.45;86.38;97822.59;108037;1272;67881;-66
2021/11/23 08:01:42;;;;;;;31.00;14.30;;;;;;;4.47;86.46;97827.69;107946;1273;70017;-65
2021/11/23 08:04:11;;;;;;;29.10;13.00;;;;;;;4.48;86.13;97827.13;108000;1275;59699;-66
2021/11/23 08:06:40;;;;;;;21.10;10.30;;;;;;;4.48;86.14;97834.20;108113;1272;59773;-65
2021/11/23 08:09:09;;;;;;;27.90;12.10;;;;;;;4.48;86.15;97838.84;107975;1272;71355;-66
2021/11/23 08:11:38;;;;;;;25.00;12.10;;;;;;;4.48;86.05;97842.83;108009;1272;68575;-65
2021/11/23 08:14:07;;;;;;;46.40;19.50;;;;;;;4.47;86.03;97842.86;107908;1275;69590;-66
2021/11/23 08:16:36;;;;;;;37.00;16.70;;;;;;;4.47;86.22;97843.02;107939;1272;59733;-66
2021/11/23 08:19:10;;;;;;;38.50;16.40;;;;;;;4.49;86.13;97843.13;107823;1276;59777;-67
2021/11/23 08:21:39;;;;;;;33.20;16.80;;;;;;;4.50;85.94;97840.35;107854;1272;70753;-66
2021/11/23 08:24:08;;;;;;;35.60;15.30;;;;;;;4.53;85.88;97845.37;107940;1274;68668;-67
2021/11/23 08:26:39;;;;;;;27.30;13.40;;;;;;;4.57;85.85;97845.88;107810;1274;68725;-66
2021/11/23 08:29:07;;;;;;;29.80;13.50;;;;;;;4.62;85.72;97849.65;107858;1272;59715;-67
2021/11/23 08:31:37;;;;;;;27.50;12.50;;;;;;;4.65;85.56;97851.27;108001;1275;59762;-66
2021/11/23 08:34:06;;;;;;;25.10;11.00;;;;;;;4.69;85.56;97855.06;108010;1272;70805;-67
2021/11/23 08:36:36;;;;;;;32.80;14.00;;;;;;;4.73;85.52;97859.72;108017;1272;68623;-66
2021/11/23 08:39:05;;;;;;;30.90;13.80;;;;;;;4.75;85.35;97866.37;107947;1272;69258;-66
2021/11/23 08:41:35;;;;;;;33.50;13.00;;;;;;;4.75;85.30;97865.33;108057;1272;59779;-67
2021/11/23 08:44:04;;;;;;;32.00;16.40;;;;;;;4.75;85.35;97866.73;108045;1272;59742;-67
2021/11/23 08:46:33;;;;;;;27.90;13.90;;;;;;;4.74;85.25;97866.10;107929;1273;71480;-67
2021/11/23 08:49:04;;;;;;;28.50;13.30;;;;;;;4.75;85.35;97870.03;108014;1271;68504;-66
2021/11/23 08:51:38;;;;;;;28.70;11.80;;;;;;;4.79;85.63;97870.35;108092;1272;69428;-67
2021/11/23 08:54:10;;;;;;;39.60;18.50;;;;;;;4.85;85.29;97870.80;107877;1275;60592;-67
2021/11/23 08:56:42;;;;;;;43.40;18.10;;;;;;;4.84;84.90;97872.02;108111;1272;59681;-66
2021/11/23 08:59:14;;;;;;;39.60;18.20;;;;;;;4.81;85.04;97868.38;107847;1275;71165;-68
2021/11/23 09:01:45;;;;;;;25.20;12.30;;;;;;;4.85;85.29;97871.33;107906;1272;69217;-67
2021/11/23 09:04:14;;;;;;;25.00;11.50;;;;;;;4.94;85.35;97874.04;108041;1272;69082;-66
2021/11/23 09:06:44;;;;;;;35.70;15.60;;;;;;;5.01;85.14;97876.15;107978;1272;59735;-66
2021/11/23 09:09:14;;;;;;;38.70;18.20;;;;;;;5.04;84.66;97867.05;108070;1272;59716;-67
2021/11/23 09:11:43;;;;;;;34.10;15.20;;;;;;;5.04;84.38;97866.34;108007;1271;71643;-66
2021/11/23 09:14:12;;;;;;;36.60;16.80;;;;;;;5.03;83.92;97866.06;107986;1272;67889;-67
2021/11/23 09:16:41;;;;;;;41.60;18.70;;;;;;;5.01;83.93;97864.41;108125;1272;69862;-67
2021/11/23 09:19:10;;;;;;;33.80;17.10;;;;;;;5.06;83.88;97863.85;108071;1272;59755;-66
2021/11/23 09:21:39;;;;;;;37.10;16.70;;;;;;;5.07;83.68;97861.03;108063;1272;59767;-68
2021/11/23 09:24:08;;;;;;;28.80;15.00;;;;;;;5.15;83.88;97863.47;107972;1275;70580;-66
2021/11/23 09:26:37;;;;;;;35.50;16.20;;;;;;;5.28;83.53;97867.39;107951;1274;68487;-68
2021/11/23 09:29:07;;;;;;;24.80;11.70;;;;;;;5.31;83.08;97874.16;108090;1272;68658;-68
2021/11/23 09:31:36;;;;;;;22.30;11.00;;;;;;;5.33;83.42;97876.67;108088;1272;59732;-68
2021/11/23 09:34:06;;;;;;;23.70;12.70;;;;;;;5.37;83.48;97876.32;108152;1272;59773;-67
2021/11/23 09:36:37;;;;;;;26.10;12.80;;;;;;;5.40;83.44;97869.60;108072;1272;72036;-66
2021/11/23 09:39:07;;;;;;;32.40;16.00;;;;;;;5.43;83.15;97873.62;108028;1272;68846;-66
2021/11/23 09:41:37;;;;;;;21.50;10.20;;;;;;;5.44;82.98;97874.42;107942;1275;68658;-66
2021/11/23 09:44:06;;;;;;;24.00;12.10;;;;;;;5.48;82.94;97868.74;107879;1276;59752;-66
2021/11/23 09:46:39;;;;;;;22.90;11.60;;;;;;;5.52;82.70;97866.29;108008;1272;59736;-66
2021/11/23 09:49:08;;;;;;;30.30;14.10;;;;;;;5.58;82.68;97866.72;108012;1271;71034;-67
2021/11/23 09:51:38;;;;;;;24.60;12.60;;;;;;;5.59;82.11;97863.73;107914;1274;67730;-66
2021/11/23 09:54:09;;;;;;;31.90;14.90;;;;;;;5.62;81.98;97870.18;107910;1275;68723;-67
2021/11/23 09:56:41;;;;;;;27.40;13.70;;;;;;;5.60;81.20;97869.04;107870;1274;59703;-66
2021/11/23 09:59:12;;;;;;;30.00;13.60;;;;;;;5.58;81.23;97865.66;107987;1272;59780;-68
2021/11/23 10:01:46;;;;;;;28.10;14.40;;;;;;;5.56;80.85;97863.54;108041;1271;71548;-68
2021/11/23 10:04:17;;;;;;;27.20;13.20;;;;;;;5.60;80.69;97868.69;107987;1272;67810;-67
2021/11/23 10:06:57;;;;;;;19.50;9.40;;;;;;;5.63;81.06;97870.63;108047;1272;68900;-67
2021/11/23 10:09:38;;;;;;;27.60;14.00;;;;;;;5.72;80.98;97871.46;108023;1272;59702;-66
2021/11/23 10:12:22;;;;;;;23.60;12.40;;;;;;;5.75;80.65;97871.29;107958;1274;59695;-67
2021/11/23 10:15:08;;;;;;;27.40;14.00;;;;;;;5.74;80.57;97872.75;107931;1274;70798;-67
2021/11/23 10:17:51;;;;;;;28.10;13.00;;;;;;;5.75;80.10;97869.41;107883;1274;68457;-67
2021/11/23 10:20:33;;;;;;;23.10;12.60;;;;;;;5.73;79.47;97869.69;108043;1271;69025;-67
2021/11/23 10:23:10;;;;;;;32.00;15.60;;;;;;;5.68;79.56;97863.16;107986;1272;59787;-66
2021/11/23 10:25:41;;;;;;;28.30;13.80;;;;;;;5.62;79.04;97862.56;108008;1272;59727;-68
2021/11/23 10:28:11;;;;;;;21.00;13.50;;;;;;;5.55;79.50;97863.23;107805;1274;70839;-67
2021/11/23 10:30:44;;;;;;;25.20;14.10;;;;;;;5.55;80.20;97860.45;107936;1276;68265;-66
2021/11/23 10:33:16;;;;;;;23.80;12.40;;;;;;;5.62;80.10;97861.71;107950;1272;68736;-67
2021/11/23 10:35:48;;;;;;;25.00;11.70;;;;;;;5.66;80.02;97863.23;107941;1271;59720;-68
2021/11/23 10:38:17;;;;;;;20.90;10.60;;;;;;;5.70;80.09;97865.48;108010;1272;59739;-66
2021/11/23 10:40:49;;;;;;;23.80;12.30;;;;;;;5.74;80.18;97866.37;108014;1275;71601;-67
2021/11/23 10:43:21;;;;;;;24.10;11.50;;;;;;;5.76;80.39;97870.77;107998;1272;69085;-67
2021/11/23 10:45:55;;;;;;;20.40;11.40;;;;;;;5.76;80.19;97872.30;107999;1271;68608;-68
2021/11/23 10:48:27;;;;;;;23.30;11.40;;;;;;;5.72;80.08;97871.80;108017;1272;60160;-66
2021/11/23 10:51:09;;;;;;;19.20;9.70;;;;;;;5.69;80.33;97874.54;107992;1275;59805;-66
2021/11/23 10:53:43;;;;;;;20.50;10.40;;;;;;;5.67;80.12;97873.40;108019;1272;70818;-66
2021/11/23 10:56:15;;;;;;;18.50;9.50;;;;;;;5.63;79.83;97871.32;108034;1271;67908;-66
2021/11/23 10:58:47;;;;;;;25.40;11.80;;;;;;;5.64;80.00;97871.29;107973;1272;68609;-67
2021/11/23 11:01:18;;;;;;;29.00;13.40;;;;;;;5.61;79.76;97870.39;107997;1271;59774;-67
2021/11/23 11:03:48;;;;;;;29.50;14.20;;;;;;;5.55;79.76;97865.80;108032;1275;59636;-67
2021/11/23 11:06:19;;;;;;;19.30;9.90;;;;;;;5.49;79.95;97868.14;108032;1271;70567;-69
2021/11/23 11:08:47;;;;;;;15.60;7.80;;;;;;;5.52;80.46;97871.84;107925;1275;68639;-68
2021/11/23 11:11:17;;;;;;;12.40;7.00;;;;;;;5.56;80.47;97875.95;107933;1272;69942;-68
2021/11/23 11:13:52;;;;;;;18.40;9.20;;;;;;;5.62;80.36;97876.88;107979;1272;59722;-68
2021/11/23 11:16:21;;;;;;;23.20;12.50;;;;;;;5.63;80.02;97876.16;108063;1272;59751;-67
2021/11/23 11:19:10;;;;;;;16.00;9.20;;;;;;;5.64;80.25;97880.46;107980;1271;71558;-67
2021/11/23 11:21:48;;;;;;;17.90;9.70;;;;;;;5.67;80.59;97878.10;107923;1274;69415;-67
2021/11/23 11:24:32;;;;;;;17.50;8.40;;;;;;;5.71;80.78;97878.09;107957;1274;69589;-68
2021/11/23 11:27:14;;;;;;;18.40;10.20;;;;;;;5.74;81.01;97872.40;108022;1271;59764;-67
2021/11/23 11:29:44;;;;;;;19.90;9.70;;;;;;;5.78;80.94;97872.02;108046;1272;59710;-67
2021/11/23 11:32:35;;;;;;;12.90;7.30;;;;;;;5.83;80.89;97875.27;107972;1272;69762;-68
2021/11/23 11:35:27;;;;;;;14.90;8.40;;;;;;;5.87;80.82;97869.89;108046;1271;67563;-67